createdAt,value
2018-05-07T00:01:27.004Z,2.60
2018-05-07T00:03:54.557Z,2.90
2018-05-07T00:06:22.087Z,2.80
2018-05-07T00:08:49.641Z,2.80
2018-05-07T00:11:17.156Z,3.10
2018-05-07T00:13:44.720Z,2.97
2018-05-07T00:16:12.253Z,2.80
2018-05-07T00:18:39.822Z,3.07
2018-05-07T00:21:07.367Z,2.60
2018-05-07T00:23:35.296Z,2.67
2018-05-07T00:26:02.848Z,2.70
2018-05-07T00:28:31.213Z,2.80
2018-05-07T00:30:58.729Z,2.87
2018-05-07T00:33:26.289Z,3.00
2018-05-07T00:35:53.828Z,2.97
2018-05-07T00:38:21.393Z,2.90
2018-05-07T00:40:48.922Z,2.80
2018-05-07T00:43:16.471Z,2.90
2018-05-07T00:45:44.001Z,2.87
2018-05-07T00:48:11.532Z,3.00
2018-05-07T00:50:39.083Z,3.10
2018-05-07T00:53:06.612Z,2.63
2018-05-07T00:55:34.161Z,3.17
2018-05-07T00:58:01.680Z,3.40
2018-05-07T01:00:29.228Z,2.93
2018-05-07T01:02:56.752Z,3.10
2018-05-07T01:05:24.311Z,2.80
2018-05-07T01:07:51.833Z,2.87
2018-05-07T01:10:19.388Z,3.10
2018-05-07T01:12:47.003Z,3.10
2018-05-07T01:15:14.507Z,3.20
2018-05-07T01:17:42.067Z,3.10
2018-05-07T01:20:09.905Z,3.00
2018-05-07T01:22:38.192Z,3.10
2018-05-07T01:25:05.757Z,3.20
2018-05-07T01:27:33.310Z,3.30
2018-05-07T01:30:00.920Z,2.97
2018-05-07T01:32:28.495Z,2.90
2018-05-07T01:34:56.071Z,3.33
2018-05-07T01:37:23.624Z,3.10
2018-05-07T01:39:51.201Z,3.10
2018-05-07T01:42:20.465Z,2.90
2018-05-07T01:44:48.357Z,3.30
2018-05-07T01:47:15.884Z,2.83
2018-05-07T01:49:43.442Z,2.97
2018-05-07T01:52:11.014Z,3.60
2018-05-07T01:54:38.558Z,3.20
2018-05-07T01:57:06.138Z,3.10
2018-05-07T01:59:33.696Z,2.97
2018-05-07T02:02:01.726Z,3.60
2018-05-07T02:04:29.276Z,3.30
2018-05-07T02:06:58.421Z,3.37
2018-05-07T02:09:25.967Z,3.27
2018-05-07T02:11:53.545Z,3.40
2018-05-07T02:14:21.136Z,2.70
2018-05-07T02:16:48.967Z,3.07
2018-05-07T02:19:16.513Z,3.37
2018-05-07T02:21:44.169Z,3.13
2018-05-07T02:24:11.705Z,3.37
2018-05-07T02:26:39.305Z,3.40
2018-05-07T02:29:07.327Z,3.87
2018-05-07T02:31:35.684Z,3.30
2018-05-07T02:34:03.232Z,3.13
2018-05-07T02:36:30.798Z,3.10
2018-05-07T02:38:59.185Z,3.50
2018-05-07T02:41:27.518Z,3.50
2018-05-07T02:43:55.054Z,3.30
2018-05-07T02:46:23.377Z,3.30
2018-05-07T02:48:50.941Z,3.33
2018-05-07T02:51:19.296Z,3.40
2018-05-07T02:53:46.902Z,3.10
2018-05-07T02:56:14.459Z,2.87
2018-05-07T02:58:42.025Z,3.17
2018-05-07T03:01:10.272Z,3.23
2018-05-07T03:03:37.854Z,3.37
2018-05-07T03:06:05.416Z,3.43
2018-05-07T03:08:33.005Z,3.30
2018-05-07T03:11:00.591Z,3.43
2018-05-07T03:13:28.166Z,3.27
2018-05-07T03:15:55.730Z,3.30
2018-05-07T03:18:23.388Z,3.47
2018-05-07T03:20:51.269Z,3.60
2018-05-07T03:23:18.854Z,3.30
2018-05-07T03:25:47.202Z,3.30
2018-05-07T03:28:15.033Z,3.40
2018-05-07T03:30:42.578Z,3.30
2018-05-07T03:33:10.917Z,3.03
2018-05-07T03:35:38.462Z,3.60
2018-05-07T03:38:06.058Z,3.13
2018-05-07T03:40:33.673Z,3.40
2018-05-07T03:43:01.184Z,3.63
2018-05-07T03:45:28.769Z,3.40
2018-05-07T03:47:56.336Z,3.37
2018-05-07T03:50:24.637Z,3.30
2018-05-07T03:52:52.201Z,3.43
2018-05-07T03:55:19.775Z,3.60
2018-05-07T03:57:48.239Z,3.60
2018-05-07T04:00:15.798Z,3.23
2018-05-07T04:02:44.286Z,3.30
2018-05-07T04:05:11.844Z,3.40
2018-05-07T04:07:39.382Z,3.90
2018-05-07T04:10:06.975Z,3.47
2018-05-07T04:12:34.521Z,3.10
2018-05-07T04:15:02.112Z,3.03
2018-05-07T04:17:41.507Z,3.30
2018-05-07T04:20:20.848Z,3.27
2018-05-07T04:23:00.083Z,3.33
2018-05-07T04:25:28.245Z,3.40
2018-05-07T04:27:55.791Z,3.30
2018-05-07T04:30:24.152Z,3.60
2018-05-07T04:32:51.711Z,3.30
2018-05-07T04:35:19.838Z,3.40
2018-05-07T04:37:47.377Z,3.60
2018-05-07T04:40:14.983Z,3.43
2018-05-07T04:42:42.517Z,3.53
2018-05-07T04:45:10.100Z,3.70
2018-05-07T04:47:38.422Z,3.67
2018-05-07T04:50:06.778Z,3.50
2018-05-07T04:52:34.348Z,3.20
2018-05-07T04:55:02.035Z,3.87
2018-05-07T04:57:29.511Z,3.60
2018-05-07T04:59:57.086Z,3.53
2018-05-07T05:02:24.660Z,3.47
2018-05-07T05:04:52.272Z,3.70
2018-05-07T05:07:19.831Z,3.93
2018-05-07T05:09:48.139Z,3.67
2018-05-07T05:12:15.702Z,3.40
2018-05-07T05:14:43.409Z,3.40
2018-05-07T05:17:11.607Z,3.73
2018-05-07T05:19:39.207Z,3.77
2018-05-07T05:22:06.780Z,3.50
2018-05-07T05:24:34.313Z,3.80
2018-05-07T05:27:01.885Z,3.47
2018-05-07T05:29:29.404Z,3.63
2018-05-07T05:31:56.954Z,3.63
2018-05-07T05:34:24.483Z,3.67
2018-05-07T05:36:52.041Z,3.53
2018-05-07T05:39:19.560Z,3.60
2018-05-07T05:41:47.880Z,3.57
2018-05-07T05:44:15.400Z,3.43
2018-05-07T05:46:43.710Z,3.13
2018-05-07T05:49:11.241Z,3.53
2018-05-07T05:51:39.560Z,3.60
2018-05-07T05:54:07.081Z,3.53
2018-05-07T05:56:34.637Z,3.50
2018-05-07T05:59:02.921Z,2.93
2018-05-07T06:01:30.481Z,3.77
2018-05-07T06:03:58.072Z,3.53
2018-05-07T06:06:25.533Z,3.40
2018-05-07T06:08:53.105Z,3.30
2018-05-07T06:11:20.614Z,3.43
2018-05-07T06:13:48.936Z,3.50
2018-05-07T06:16:16.452Z,3.40
2018-05-07T06:18:44.028Z,4.10
2018-05-07T06:21:11.626Z,3.50
2018-05-07T06:23:39.883Z,3.43
2018-05-07T06:26:07.412Z,3.40
2018-05-07T06:28:35.741Z,3.00
2018-05-07T06:31:03.268Z,3.30
2018-05-07T06:33:30.821Z,3.80
2018-05-07T06:35:58.348Z,3.40
2018-05-07T06:38:25.895Z,3.73
2018-05-07T06:40:53.428Z,3.80
2018-05-07T06:43:20.983Z,3.40
2018-05-07T06:45:48.543Z,3.47
2018-05-07T06:48:16.068Z,3.37
2018-05-07T06:50:44.352Z,3.23
2018-05-07T06:53:12.669Z,3.30
2018-05-07T06:55:40.183Z,3.47
2018-05-07T06:58:08.505Z,3.10
2018-05-07T07:00:36.023Z,3.23
2018-05-07T07:03:04.338Z,3.03
2018-05-07T07:05:31.861Z,3.07
2018-05-07T07:08:00.265Z,3.20
2018-05-07T07:10:27.725Z,3.10
2018-05-07T07:12:55.249Z,2.87
2018-05-07T07:15:23.574Z,3.30
2018-05-07T07:17:51.104Z,3.10
2018-05-07T07:20:18.652Z,2.90
2018-05-07T07:22:46.932Z,2.73
2018-05-07T07:25:15.248Z,3.00
2018-05-07T07:27:42.764Z,2.80
2018-05-07T07:30:11.140Z,2.70
2018-05-07T07:32:39.424Z,3.20
2018-05-07T07:35:07.735Z,2.60
2018-05-07T07:37:35.247Z,2.63
2018-05-07T07:40:02.797Z,2.77
2018-05-07T07:42:30.320Z,2.80
2018-05-07T07:44:57.873Z,2.70
2018-05-07T07:47:25.396Z,2.63
2018-05-07T07:49:53.711Z,2.70
2018-05-07T07:52:21.291Z,2.87
2018-05-07T07:54:48.810Z,2.47
2018-05-07T07:57:16.347Z,2.70
2018-05-07T07:59:43.894Z,2.80
2018-05-07T08:02:11.415Z,2.50
2018-05-07T08:04:38.963Z,2.50
2018-05-07T08:07:06.479Z,2.70
2018-05-07T08:09:34.037Z,2.90
2018-05-07T08:12:01.626Z,2.80
2018-05-07T08:14:29.092Z,2.70
2018-05-07T08:16:56.645Z,2.47
2018-05-07T08:19:24.928Z,2.80
2018-05-07T08:21:52.472Z,2.73
2018-05-07T08:24:20.750Z,2.47
2018-05-07T08:26:49.064Z,2.80
2018-05-07T08:29:16.588Z,2.73
2018-05-07T08:31:44.907Z,2.80
2018-05-07T08:34:12.429Z,2.97
2018-05-07T08:36:40.764Z,2.83
2018-05-07T08:39:08.284Z,2.57
2018-05-07T08:41:35.833Z,3.13
2018-05-07T08:44:03.355Z,3.20
2018-05-07T08:46:30.909Z,3.30
2018-05-07T08:48:58.427Z,3.10
2018-05-07T08:51:25.981Z,2.53
2018-05-07T08:53:53.514Z,2.90
2018-05-07T08:56:21.068Z,3.20
2018-05-07T08:58:48.587Z,3.13
2018-05-07T09:01:16.140Z,3.13
2018-05-07T09:03:43.659Z,2.80
2018-05-07T09:06:11.975Z,3.20
2018-05-07T09:08:39.491Z,2.83
2018-05-07T09:11:07.037Z,3.00
2018-05-07T09:13:34.567Z,2.90
2018-05-07T09:16:02.129Z,2.40
2018-05-07T09:18:29.651Z,2.60
2018-05-07T09:20:57.936Z,2.87
2018-05-07T09:23:25.483Z,2.90
2018-05-07T09:25:53.776Z,2.80
2018-05-07T09:28:21.332Z,2.87
2018-05-07T09:30:48.850Z,2.93
2018-05-07T09:33:16.401Z,2.40
2018-05-07T09:35:43.926Z,2.70
2018-05-07T09:38:11.475Z,2.53
2018-05-07T09:40:38.996Z,2.70
2018-05-07T09:43:06.604Z,2.67
2018-05-07T09:45:34.091Z,2.60
2018-05-07T09:48:01.649Z,2.70
2018-05-07T09:50:29.174Z,2.50
2018-05-07T09:52:56.753Z,2.50
2018-05-07T09:55:24.293Z,2.80
2018-05-07T09:58:04.816Z,2.37
2018-05-07T10:00:37.275Z,2.53
2018-05-07T10:03:04.835Z,2.90
2018-05-07T10:05:33.267Z,2.43
2018-05-07T10:08:01.576Z,2.90
2018-05-07T10:10:29.096Z,2.50
2018-05-07T10:12:57.413Z,2.90
2018-05-07T10:15:24.928Z,2.80
2018-05-07T10:17:53.250Z,2.57
2018-05-07T10:20:20.763Z,2.63
2018-05-07T10:22:48.311Z,2.80
2018-05-07T10:25:15.828Z,2.80
2018-05-07T10:27:43.389Z,2.70
2018-05-07T10:30:10.910Z,3.07
2018-05-07T10:32:39.227Z,2.47
2018-05-07T10:35:06.756Z,2.77
2018-05-07T10:37:35.068Z,2.83
2018-05-07T10:40:02.591Z,2.73
2018-05-07T10:42:30.909Z,2.60
2018-05-07T10:44:58.427Z,2.67
2018-05-07T10:47:26.766Z,2.80
2018-05-07T10:49:54.284Z,2.70
2018-05-07T10:52:21.804Z,2.83
2018-05-07T10:54:49.812Z,2.60
2018-05-07T10:57:17.337Z,2.90
2018-05-07T10:59:44.883Z,2.30
2018-05-07T11:02:12.436Z,2.80
2018-05-07T11:04:39.991Z,2.83
2018-05-07T11:07:07.517Z,2.53
2018-05-07T11:09:35.097Z,2.60
2018-05-07T11:12:02.619Z,2.77
2018-05-07T11:14:30.986Z,2.90
2018-05-07T11:16:59.276Z,3.00
2018-05-07T11:19:27.594Z,2.60
2018-05-07T11:21:55.113Z,2.50
2018-05-07T11:24:23.439Z,2.35
2018-05-07T11:26:50.955Z,2.43
2018-05-07T11:29:19.268Z,3.00
2018-05-07T11:31:46.799Z,2.90
2018-05-07T11:34:14.347Z,3.00
2018-05-07T11:36:42.672Z,2.60
2018-05-07T11:39:10.303Z,2.73
2018-05-07T11:41:37.758Z,2.70
2018-05-07T11:44:05.312Z,2.80
2018-05-07T11:46:33.601Z,2.80
2018-05-07T11:49:01.155Z,3.07
2018-05-07T11:51:28.683Z,2.77
2018-05-07T11:53:56.235Z,2.70
2018-05-07T11:56:23.752Z,2.47
2018-05-07T11:58:51.308Z,2.80
2018-05-07T12:01:18.844Z,3.30
2018-05-07T12:03:46.447Z,2.58
2018-05-07T12:06:13.972Z,2.60
2018-05-07T12:08:41.532Z,3.13
2018-05-07T12:11:09.824Z,2.90
2018-05-07T12:13:37.376Z,2.62
2018-05-07T12:16:04.920Z,2.50
2018-05-07T12:18:33.234Z,2.58
2018-05-07T12:21:00.744Z,2.60
2018-05-07T12:23:28.268Z,2.72
2018-05-07T12:25:55.819Z,3.10
2018-05-07T12:28:23.335Z,2.50
2018-05-07T12:30:51.658Z,2.50
2018-05-07T12:33:19.188Z,2.70
2018-05-07T12:35:46.745Z,2.70
2018-05-07T12:38:15.037Z,2.80
2018-05-07T12:40:42.592Z,2.55
2018-05-07T12:43:10.117Z,2.55
2018-05-07T12:45:37.664Z,2.22
2018-05-07T12:48:05.189Z,2.37
2018-05-07T12:50:32.736Z,2.45
2018-05-07T12:53:00.261Z,2.15
2018-05-07T12:55:27.816Z,2.65
2018-05-07T12:57:55.341Z,2.28
2018-05-07T13:00:22.892Z,2.22
2018-05-07T13:02:50.407Z,2.25
2018-05-07T13:05:18.732Z,2.60
2018-05-07T13:07:46.256Z,2.20
2018-05-07T13:10:14.583Z,2.35
2018-05-07T13:12:42.106Z,2.00
2018-05-07T13:15:09.656Z,2.65
2018-05-07T13:17:37.944Z,2.33
2018-05-07T13:20:05.495Z,2.55
2018-05-07T13:22:33.028Z,2.40
2018-05-07T13:25:00.587Z,2.17
2018-05-07T13:27:28.125Z,2.53
2018-05-07T13:29:55.675Z,2.05
2018-05-07T13:32:23.195Z,2.10
2018-05-07T13:34:51.513Z,2.28
2018-05-07T13:37:19.041Z,2.50
2018-05-07T13:39:46.603Z,2.42
2018-05-07T13:42:14.128Z,2.60
2018-05-07T13:44:41.683Z,2.70
2018-05-07T13:47:09.205Z,2.37
2018-05-07T13:49:36.759Z,2.67
2018-05-07T13:52:04.275Z,2.70
2018-05-07T13:54:32.563Z,2.30
2018-05-07T13:57:00.882Z,2.15
2018-05-07T13:59:28.404Z,2.40
2018-05-07T14:01:56.788Z,2.28
2018-05-07T14:04:24.259Z,2.40
2018-05-07T14:06:51.821Z,2.20
2018-05-07T14:09:19.352Z,2.28
2018-05-07T14:11:47.681Z,2.45
2018-05-07T14:14:15.203Z,2.05
2018-05-07T14:16:43.581Z,2.30
2018-05-07T14:19:11.092Z,2.22
2018-05-07T14:21:38.631Z,1.90
2018-05-07T14:24:06.158Z,2.00
2018-05-07T14:26:34.477Z,1.98
2018-05-07T14:29:02.006Z,1.90
2018-05-07T14:31:29.561Z,1.98
2018-05-07T14:33:57.853Z,2.20
2018-05-07T14:36:25.408Z,2.20
2018-05-07T14:38:53.001Z,2.00
2018-05-07T14:41:20.519Z,2.12
2018-05-07T14:43:48.801Z,2.28
2018-05-07T14:46:17.116Z,2.00
2018-05-07T14:48:44.639Z,2.20
2018-05-07T14:51:12.198Z,1.77
2018-05-07T14:53:39.723Z,1.90
2018-05-07T14:56:07.321Z,1.70
2018-05-07T14:58:35.667Z,1.65
2018-05-07T15:01:03.176Z,1.73
2018-05-07T15:03:30.696Z,1.62
2018-05-07T15:05:59.012Z,1.80
2018-05-07T15:08:26.541Z,1.98
2018-05-07T15:10:54.861Z,1.70
2018-05-07T15:13:22.427Z,1.83
2018-05-07T15:15:49.972Z,1.80
2018-05-07T15:18:17.489Z,1.50
2018-05-07T15:20:45.041Z,1.80
2018-05-07T15:23:12.572Z,1.98
2018-05-07T15:25:40.132Z,1.90
2018-05-07T15:28:07.716Z,2.00
2018-05-07T15:30:35.279Z,2.00
2018-05-07T15:33:02.854Z,2.05
2018-05-07T15:35:31.161Z,1.87
2018-05-07T15:37:58.725Z,1.73
2018-05-07T15:40:26.248Z,1.85
2018-05-07T15:42:53.796Z,1.70
2018-05-07T15:45:21.318Z,2.00
2018-05-07T15:47:48.882Z,2.00
2018-05-07T15:50:16.408Z,1.90
2018-05-07T15:52:43.994Z,1.80
2018-05-07T15:55:11.517Z,1.73
2018-05-07T15:57:39.870Z,1.60
2018-05-07T16:00:07.373Z,1.83
2018-05-07T16:02:34.945Z,1.75
2018-05-07T16:05:02.474Z,1.73
2018-05-07T16:07:30.881Z,1.67
2018-05-07T16:09:58.400Z,1.52
2018-05-07T16:12:25.961Z,1.90
2018-05-07T16:14:53.574Z,1.90
2018-05-07T16:17:21.073Z,1.83
2018-05-07T16:19:48.597Z,1.60
2018-05-07T16:22:16.232Z,1.70
2018-05-07T16:24:43.701Z,1.70
2018-05-07T16:27:11.251Z,1.85
2018-05-07T16:29:38.771Z,1.77
2018-05-07T16:32:06.337Z,1.73
2018-05-07T16:34:33.877Z,1.77
2018-05-07T16:37:01.431Z,1.77
2018-05-07T16:39:28.957Z,1.70
2018-05-07T16:41:56.516Z,1.67
2018-05-07T16:44:24.045Z,1.50
2018-05-07T16:46:51.604Z,1.90
2018-05-07T16:49:19.128Z,1.55
2018-05-07T16:51:46.681Z,1.77
2018-05-07T16:54:14.218Z,1.70
2018-05-07T16:56:41.776Z,1.58
2018-05-07T16:59:09.297Z,1.90
2018-05-07T17:01:36.824Z,1.73
2018-05-07T17:04:04.385Z,1.83
2018-05-07T17:06:31.905Z,1.67
2018-05-07T17:09:00.233Z,1.80
2018-05-07T17:11:27.766Z,2.03
2018-05-07T17:13:56.282Z,1.70
2018-05-07T17:16:23.904Z,1.77
2018-05-07T17:18:51.457Z,1.98
2018-05-07T17:21:18.989Z,1.80
2018-05-07T17:23:46.548Z,2.05
2018-05-07T17:26:14.073Z,2.40
2018-05-07T17:28:41.657Z,2.25
2018-05-07T17:31:09.180Z,1.80
2018-05-07T17:33:36.768Z,1.83
2018-05-07T17:36:04.274Z,1.80
2018-05-07T17:38:32.596Z,1.90
2018-05-07T17:41:00.118Z,2.05
2018-05-07T17:43:27.681Z,1.80
2018-05-07T17:46:06.988Z,1.85
2018-05-07T17:49:00.505Z,2.00
2018-05-07T17:51:28.033Z,1.80
2018-05-07T17:53:55.602Z,1.80
2018-05-07T17:56:23.120Z,1.70
2018-05-07T17:58:50.673Z,1.85
2018-05-07T18:01:18.209Z,2.00
2018-05-07T18:03:45.764Z,2.30
2018-05-07T18:06:13.279Z,1.67
2018-05-07T18:08:41.621Z,2.00
2018-05-07T18:11:09.145Z,1.90
2018-05-07T18:13:36.708Z,2.30
2018-05-07T18:16:04.233Z,2.00
2018-05-07T18:18:31.785Z,2.17
2018-05-07T18:20:59.325Z,2.03
2018-05-07T18:23:26.872Z,1.92
2018-05-07T18:25:54.395Z,1.80
2018-05-07T18:28:22.717Z,2.10
2018-05-07T18:30:50.241Z,1.98
2018-05-07T18:33:17.805Z,2.00
2018-05-07T18:35:45.334Z,2.08
2018-05-07T18:38:12.893Z,2.42
2018-05-07T18:40:40.419Z,2.20
2018-05-07T18:43:07.983Z,2.20
2018-05-07T18:45:35.540Z,1.95
2018-05-07T18:48:03.128Z,2.10
2018-05-07T18:50:30.656Z,2.08
2018-05-07T18:52:58.175Z,2.17
2018-05-07T18:55:26.502Z,2.15
2018-05-07T18:57:54.024Z,2.00
2018-05-07T19:00:21.579Z,2.33
2018-05-07T19:02:49.109Z,2.37
2018-05-07T19:05:16.708Z,2.20
2018-05-07T19:07:44.234Z,2.20
2018-05-07T19:10:12.556Z,2.20
2018-05-07T19:12:40.086Z,2.05
2018-05-07T19:15:08.418Z,2.40
2018-05-07T19:17:36.704Z,2.40
2018-05-07T19:20:04.286Z,2.10
2018-05-07T19:22:31.809Z,2.13
2018-05-07T19:24:59.370Z,2.43
2018-05-07T19:27:26.903Z,2.07
2018-05-07T19:29:54.467Z,2.20
2018-05-07T19:32:21.997Z,2.20
2018-05-07T19:34:50.320Z,2.20
2018-05-07T19:37:17.849Z,2.30
2018-05-07T19:39:45.395Z,2.20
2018-05-07T19:42:13.685Z,2.10
2018-05-07T19:44:42.009Z,2.43
2018-05-07T19:47:09.550Z,2.50
2018-05-07T19:49:37.100Z,2.03
2018-05-07T19:52:04.630Z,2.07
2018-05-07T19:54:32.965Z,2.20
2018-05-07T19:57:00.489Z,2.00
2018-05-07T19:59:28.041Z,2.40
2018-05-07T20:01:56.323Z,2.13
2018-05-07T20:04:24.640Z,2.00
2018-05-07T20:06:52.160Z,2.33
2018-05-07T20:09:19.712Z,2.07
2018-05-07T20:11:48.003Z,2.13
2018-05-07T20:14:15.605Z,2.07
2018-05-07T20:16:43.144Z,2.20
2018-05-07T20:19:10.668Z,2.30
2018-05-07T20:21:38.990Z,2.37
2018-05-07T20:24:06.521Z,2.50
2018-05-07T20:26:34.083Z,2.30
2018-05-07T20:29:01.618Z,1.93
2018-05-07T20:31:29.948Z,2.47
2018-05-07T20:33:57.463Z,2.17
2018-05-07T20:36:25.788Z,2.40
2018-05-07T20:38:53.325Z,2.13
2018-05-07T20:41:20.893Z,2.40
2018-05-07T20:43:48.421Z,2.20
2018-05-07T20:46:16.729Z,2.40
2018-05-07T20:48:44.257Z,2.47
2018-05-07T20:51:12.574Z,2.63
2018-05-07T20:53:40.108Z,2.30
2018-05-07T20:56:08.420Z,2.37
2018-05-07T20:58:35.943Z,2.30
2018-05-07T21:01:04.256Z,2.63
2018-05-07T21:03:31.781Z,2.90
2018-05-07T21:06:00.094Z,2.53
2018-05-07T21:08:27.620Z,2.70
2018-05-07T21:10:55.936Z,2.50
2018-05-07T21:13:23.460Z,2.60
2018-05-07T21:15:51.009Z,2.47
2018-05-07T21:18:19.288Z,2.50
2018-05-07T21:20:47.604Z,2.23
2018-05-07T21:23:15.130Z,2.60
2018-05-07T21:25:43.461Z,2.70
2018-05-07T21:28:10.976Z,2.77
2018-05-07T21:30:38.495Z,2.57
2018-05-07T21:33:06.044Z,2.70
2018-05-07T21:35:33.565Z,2.40
2018-05-07T21:38:01.128Z,2.57
2018-05-07T21:40:28.648Z,2.50
2018-05-07T21:42:56.193Z,2.53
2018-05-07T21:45:23.707Z,2.23
2018-05-07T21:47:51.292Z,2.50
2018-05-07T21:50:18.812Z,2.50
2018-05-07T21:52:46.363Z,2.60
2018-05-07T21:55:14.652Z,2.73
2018-05-07T21:57:42.203Z,2.60
2018-05-07T22:00:10.483Z,2.93
2018-05-07T22:02:38.805Z,2.47
2018-05-07T22:05:06.324Z,2.80
2018-05-07T22:07:33.875Z,2.90
2018-05-07T22:10:02.162Z,2.90
2018-05-07T22:12:29.720Z,2.80
2018-05-07T22:14:58.019Z,3.10
2018-05-07T22:17:25.568Z,2.63
2018-05-07T22:19:53.080Z,2.60
2018-05-07T22:22:20.633Z,2.60
2018-05-07T22:24:48.162Z,2.70
2018-05-07T22:27:15.716Z,2.50
2018-05-07T22:29:43.232Z,2.57
2018-05-07T22:32:10.795Z,2.57
2018-05-07T22:34:38.320Z,2.80
2018-05-07T22:37:05.833Z,2.60
2018-05-07T22:39:34.144Z,2.60
2018-05-07T22:42:01.659Z,2.47
2018-05-07T22:44:29.973Z,2.70
2018-05-07T22:46:57.487Z,2.57
2018-05-07T22:49:25.040Z,2.87
2018-05-07T22:51:52.561Z,2.60
2018-05-07T22:54:20.121Z,2.73
2018-05-07T22:56:47.640Z,3.00
2018-05-07T22:59:15.953Z,2.67
2018-05-07T23:01:43.472Z,2.60
2018-05-07T23:04:11.797Z,2.70
2018-05-07T23:06:39.311Z,2.73
2018-05-07T23:09:07.624Z,2.73
2018-05-07T23:11:35.149Z,2.63
2018-05-07T23:14:03.465Z,3.00
2018-05-07T23:16:30.988Z,2.40
2018-05-07T23:18:58.556Z,3.23
2018-05-07T23:21:26.849Z,2.60
2018-05-07T23:23:54.409Z,2.93
2018-05-07T23:26:21.931Z,2.87
2018-05-07T23:28:49.485Z,2.77
2018-05-07T23:31:17.005Z,3.00
2018-05-07T23:33:44.555Z,2.60
2018-05-07T23:36:12.067Z,2.90
2018-05-07T23:38:39.575Z,2.90
2018-05-07T23:41:07.113Z,2.60
2018-05-07T23:43:35.397Z,3.03
2018-05-07T23:46:02.950Z,3.00
2018-05-07T23:48:31.252Z,2.97
2018-05-07T23:50:58.800Z,3.10
2018-05-07T23:53:26.314Z,3.07
2018-05-07T23:55:53.868Z,3.07
2018-05-07T23:58:21.379Z,2.90
